Time;durP1;ratioP1;P1;durP2;ratioP2;P2;SDS_P1;SDS_P2;PMS_P1;PMS_P2;Temp;Humidity;BMP_temperature;BMP_pressure;BME280_temperature;BME280_humidity;BME280_pressure;Samples;Min_cycle;Max_cycle;Signal;HPM_P1;HPM_P2
2024/01/11 00:01:23;;;;;;;3.25;3.05;;;15.50;61.30;;;;;;5032838;28;20052;-84
2024/01/11 00:03:49;;;;;;;3.25;3.05;;;15.50;61.30;;;;;;5018793;28;20100;-83
2024/01/11 00:06:14;;;;;;;3.30;3.10;;;15.50;61.20;;;;;;4996985;28;20045;-83
2024/01/11 00:08:40;;;;;;;3.30;3.10;;;15.40;61.80;;;;;;4998602;28;20043;-83
2024/01/11 00:11:05;;;;;;;3.20;3.00;;;15.50;60.80;;;;;;5020614;28;20046;-85
2024/01/11 00:13:31;;;;;;;3.10;2.90;;;15.40;60.90;;;;;;5018610;28;20050;-84
2024/01/11 00:15:56;;;;;;;3.60;3.40;;;15.40;61.20;;;;;;5003773;28;20119;-84
2024/01/11 00:18:22;;;;;;;3.25;3.05;;;15.40;60.40;;;;;;5014628;28;20034;-85
2024/01/11 00:20:48;;;;;;;3.40;3.20;;;15.40;60.30;;;;;;5022321;28;20392;-86
2024/01/11 00:23:13;;;;;;;3.20;3.00;;;15.40;60.70;;;;;;5019700;28;20025;-85
2024/01/11 00:25:39;;;;;;;3.40;3.20;;;15.40;60.80;;;;;;5022975;28;20041;-87
2024/01/11 00:28:04;;;;;;;3.42;3.20;;;15.40;60.90;;;;;;5006973;28;20045;-87
2024/01/11 00:30:30;;;;;;;3.05;2.85;;;15.30;61.10;;;;;;5012025;28;20095;-86
2024/01/11 00:32:55;;;;;;;3.33;3.13;;;15.30;61.10;;;;;;5011245;28;20582;-86
2024/01/11 00:35:21;;;;;;;3.00;2.90;;;15.30;60.60;;;;;;5006790;28;20030;-86
2024/01/11 00:37:46;;;;;;;3.53;3.22;;;15.30;61.20;;;;;;5026115;28;20037;-86
2024/01/11 00:40:12;;;;;;;3.33;3.13;;;15.30;61.10;;;;;;5023678;28;20048;-86
2024/01/11 00:42:38;;;;;;;3.45;3.25;;;15.30;60.60;;;;;;5021646;28;20052;-86
2024/01/11 00:45:04;;;;;;;3.20;2.90;;;15.30;60.40;;;;;;5016868;28;20054;-86
2024/01/11 00:47:30;;;;;;;4.35;3.35;;;15.30;60.20;;;;;;5051131;28;20045;-84
2024/01/11 00:49:55;;;;;;;3.17;2.97;;;15.30;60.60;;;;;;5001998;28;20069;-84
2024/01/11 00:52:21;;;;;;;3.22;3.03;;;15.30;60.20;;;;;;5020148;28;20061;-84
2024/01/11 00:54:46;;;;;;;3.33;3.13;;;15.30;60.80;;;;;;5021911;28;20044;-84
2024/01/11 00:57:12;;;;;;;3.65;3.45;;;15.30;60.90;;;;;;5020850;28;20491;-83
2024/01/11 00:59:39;;;;;;;3.20;3.00;;;15.20;60.90;;;;;;5023162;28;20033;-83
2024/01/11 01:02:05;;;;;;;3.30;3.10;;;15.20;61.10;;;;;;5024242;28;20048;-84
2024/01/11 01:04:30;;;;;;;3.45;3.25;;;15.20;61.10;;;;;;5005729;28;20057;-84
2024/01/11 01:06:56;;;;;;;2.75;2.65;;;15.20;61.00;;;;;;5024360;28;20065;-86
2024/01/11 01:09:21;;;;;;;3.30;3.10;;;15.20;61.00;;;;;;5022184;28;20041;-86
2024/01/11 01:11:47;;;;;;;3.05;2.85;;;15.20;60.30;;;;;;5024193;28;20045;-86
2024/01/11 01:14:12;;;;;;;2.90;2.70;;;15.20;60.70;;;;;;5022783;28;20049;-85
2024/01/11 01:16:38;;;;;;;3.20;3.00;;;15.20;60.50;;;;;;5028221;28;20124;-86
2024/01/11 01:19:04;;;;;;;3.53;3.33;;;15.20;60.00;;;;;;5025898;28;20065;-86
2024/01/11 01:21:29;;;;;;;3.10;2.90;;;15.20;60.20;;;;;;5024404;28;20629;-86
2024/01/11 01:23:55;;;;;;;3.30;3.10;;;15.20;60.10;;;;;;5023303;28;20042;-84
2024/01/11 01:26:20;;;;;;;3.13;2.95;;;15.20;60.70;;;;;;5007967;28;20419;-84
2024/01/11 01:28:46;;;;;;;3.38;3.17;;;15.20;60.00;;;;;;5009508;28;20073;-84
2024/01/11 01:31:12;;;;;;;3.63;3.42;;;15.10;60.90;;;;;;5024571;28;20045;-84
2024/01/11 01:33:38;;;;;;;2.92;2.72;;;15.10;60.00;;;;;;5020508;28;20053;-84
2024/01/11 01:36:03;;;;;;;3.30;3.10;;;15.10;60.30;;;;;;5024701;28;20049;-84
2024/01/11 01:38:30;;;;;;;4.50;3.10;;;15.10;60.70;;;;;;5023979;28;20037;-84
2024/01/11 01:40:55;;;;;;;3.08;2.92;;;15.10;60.60;;;;;;5003892;28;20050;-83
2024/01/11 01:43:21;;;;;;;3.25;3.05;;;15.10;60.30;;;;;;5007702;28;20049;-83
2024/01/11 01:45:47;;;;;;;3.17;2.97;;;15.10;60.00;;;;;;4978831;28;20049;-83
2024/01/11 01:48:12;;;;;;;3.40;3.20;;;15.00;60.10;;;;;;5022638;28;20268;-83
2024/01/11 01:50:38;;;;;;;2.95;2.83;;;15.10;60.10;;;;;;5022004;28;20072;-83
2024/01/11 01:53:03;;;;;;;3.30;3.10;;;15.00;60.20;;;;;;5027666;28;20079;-83
2024/01/11 01:55:29;;;;;;;2.78;2.58;;;15.00;60.10;;;;;;5042310;28;20511;-83
2024/01/11 01:57:54;;;;;;;3.42;3.22;;;15.00;60.30;;;;;;4994570;28;20393;-84
2024/01/11 02:00:20;;;;;;;3.60;3.40;;;15.00;59.90;;;;;;5008966;28;20064;-82
2024/01/11 02:02:46;;;;;;;3.25;3.05;;;15.00;60.50;;;;;;5005175;28;20519;-83
2024/01/11 02:05:12;;;;;;;3.58;3.38;;;15.00;60.10;;;;;;5035670;28;20396;-83
2024/01/11 02:07:37;;;;;;;3.15;2.95;;;15.00;60.60;;;;;;5041373;28;20046;-83
2024/01/11 02:10:03;;;;;;;2.97;2.80;;;15.00;60.20;;;;;;4999258;28;20072;-83
2024/01/11 02:12:29;;;;;;;3.45;3.25;;;15.00;60.10;;;;;;4998084;28;20092;-83
2024/01/11 02:14:54;;;;;;;3.47;3.28;;;15.00;59.90;;;;;;4999671;28;20479;-83
2024/01/11 02:17:20;;;;;;;3.22;3.03;;;15.00;60.10;;;;;;5021367;28;20117;-82
2024/01/11 02:19:46;;;;;;;2.92;2.83;;;15.00;59.90;;;;;;5007149;28;20052;-82
2024/01/11 02:22:22;;;;;;;3.58;3.38;;;14.90;60.20;;;;;;5035486;28;20033;-82
2024/01/11 02:24:48;;;;;;;3.60;3.40;;;14.90;60.20;;;;;;5023105;28;20049;-82
2024/01/11 02:27:13;;;;;;;3.25;3.05;;;14.90;60.00;;;;;;5021536;28;20450;-82
2024/01/11 02:29:39;;;;;;;3.35;3.15;;;14.90;60.10;;;;;;5012224;28;20177;-82
2024/01/11 02:32:06;;;;;;;3.13;2.92;;;14.90;59.90;;;;;;5021904;28;20641;-82
2024/01/11 02:34:31;;;;;;;3.28;3.08;;;14.90;60.40;;;;;;5001100;28;20084;-84
2024/01/11 02:36:57;;;;;;;3.00;2.90;;;14.90;59.90;;;;;;5022976;28;20124;-83
2024/01/11 02:39:23;;;;;;;3.20;3.00;;;14.90;60.80;;;;;;5022190;28;20053;-83
2024/01/11 02:41:49;;;;;;;3.40;3.20;;;14.90;60.00;;;;;;5006746;28;20536;-83
2024/01/11 02:44:15;;;;;;;3.22;3.03;;;14.90;60.30;;;;;;5021716;28;20053;-84
2024/01/11 02:46:41;;;;;;;3.03;2.85;;;14.90;59.80;;;;;;5015171;28;20046;-83
2024/01/11 02:49:06;;;;;;;2.92;2.78;;;14.90;59.90;;;;;;5021477;28;20136;-84
2024/01/11 02:51:32;;;;;;;2.90;2.70;;;14.90;60.00;;;;;;5025386;28;20088;-84
2024/01/11 02:53:58;;;;;;;3.40;3.20;;;14.80;59.90;;;;;;5021572;28;20045;-82
2024/01/11 02:56:23;;;;;;;3.50;3.30;;;14.80;59.90;;;;;;5019156;28;20045;-83
2024/01/11 02:58:49;;;;;;;3.22;3.03;;;14.80;59.70;;;;;;5022360;28;20070;-83
2024/01/11 03:01:14;;;;;;;3.08;2.88;;;14.80;59.90;;;;;;5007929;28;20534;-84
2024/01/11 03:03:40;;;;;;;3.10;2.90;;;14.80;59.80;;;;;;4997242;28;20052;-84
2024/01/11 03:06:06;;;;;;;2.83;2.67;;;14.80;59.90;;;;;;4999479;28;20045;-84
2024/01/11 03:08:31;;;;;;;3.30;3.08;;;14.80;59.80;;;;;;5021061;28;20064;-84
2024/01/11 03:10:57;;;;;;;3.22;3.05;;;14.80;59.80;;;;;;5022247;28;20088;-83
2024/01/11 03:13:23;;;;;;;2.92;2.72;;;14.80;59.80;;;;;;5009342;28;20038;-82
2024/01/11 03:15:48;;;;;;;3.08;2.88;;;14.80;59.80;;;;;;5022007;28;20069;-83
2024/01/11 03:18:14;;;;;;;3.25;3.05;;;14.80;60.00;;;;;;5003702;28;20069;-83
2024/01/11 03:20:40;;;;;;;2.53;2.42;;;14.80;59.90;;;;;;5000085;28;20037;-82
2024/01/11 03:23:05;;;;;;;2.45;2.35;;;14.80;60.10;;;;;;5021291;28;20478;-82
2024/01/11 03:25:31;;;;;;;2.80;2.70;;;14.80;59.90;;;;;;5023198;28;20559;-82
2024/01/11 03:27:57;;;;;;;2.75;2.65;;;14.80;59.90;;;;;;5010474;28;20164;-83
2024/01/11 03:30:23;;;;;;;2.88;2.67;;;14.70;59.80;;;;;;5018071;28;20423;-82
2024/01/11 03:32:49;;;;;;;2.55;2.35;;;14.70;59.80;;;;;;5013897;28;20029;-83
2024/01/11 03:35:14;;;;;;;2.63;2.53;;;14.70;59.80;;;;;;5032305;28;20508;-84
2024/01/11 03:37:40;;;;;;;2.90;2.70;;;14.70;60.00;;;;;;5019199;28;20046;-83
2024/01/11 03:40:06;;;;;;;2.83;2.72;;;14.70;59.90;;;;;;5018636;28;20550;-82
2024/01/11 03:42:31;;;;;;;2.72;2.53;;;14.70;60.00;;;;;;5018603;28;20041;-82
2024/01/11 03:44:57;;;;;;;2.30;2.20;;;14.70;59.90;;;;;;4994626;28;20041;-82
2024/01/11 03:47:22;;;;;;;3.15;2.50;;;14.70;59.90;;;;;;5019972;28;20083;-80
2024/01/11 03:49:48;;;;;;;3.00;2.80;;;14.70;60.00;;;;;;5020992;28;20415;-83
2024/01/11 03:52:13;;;;;;;2.65;2.55;;;14.70;60.00;;;;;;5019223;28;20045;-84
2024/01/11 03:54:39;;;;;;;2.60;2.42;;;14.70;59.90;;;;;;4989040;28;20049;-83
2024/01/11 03:57:06;;;;;;;2.95;2.85;;;14.70;60.00;;;;;;5001034;28;20030;-82
2024/01/11 03:59:31;;;;;;;2.58;2.47;;;14.70;59.90;;;;;;4971718;28;20056;-85
2024/01/11 04:01:57;;;;;;;2.67;2.58;;;14.60;60.00;;;;;;5000226;28;20041;-83
2024/01/11 04:04:23;;;;;;;2.72;2.63;;;14.70;60.00;;;;;;5001347;28;20601;-84
2024/01/11 04:06:49;;;;;;;2.95;2.75;;;14.60;60.00;;;;;;5008473;28;20476;-83
2024/01/11 04:09:15;;;;;;;3.38;3.17;;;14.70;60.90;;;;;;4992428;28;20041;-86
2024/01/11 04:11:40;;;;;;;2.70;2.50;;;14.60;60.00;;;;;;5014088;28;20150;-84
2024/01/11 04:14:06;;;;;;;2.85;2.65;;;14.60;60.00;;;;;;5013007;28;20042;-83
2024/01/11 04:16:31;;;;;;;2.60;2.40;;;14.70;60.20;;;;;;5003158;28;20049;-83
2024/01/11 04:18:57;;;;;;;2.80;2.60;;;14.60;60.00;;;;;;5004038;28;20029;-85
2024/01/11 04:21:23;;;;;;;2.45;2.35;;;14.60;60.30;;;;;;5004450;28;20052;-84
2024/01/11 04:23:49;;;;;;;2.63;2.42;;;14.60;60.00;;;;;;4978715;28;20069;-85
2024/01/11 04:26:15;;;;;;;2.50;2.40;;;14.60;59.90;;;;;;5018100;28;20107;-83
2024/01/11 04:28:40;;;;;;;2.83;2.63;;;14.60;60.00;;;;;;5014100;28;20121;-83
2024/01/11 04:31:08;;;;;;;3.00;2.80;;;14.60;59.80;;;;;;5010821;28;20593;-83
2024/01/11 04:33:34;;;;;;;2.35;2.25;;;14.60;59.90;;;;;;5008599;28;20545;-85
2024/01/11 04:35:59;;;;;;;2.55;2.45;;;14.60;60.00;;;;;;5008655;28;20113;-83
2024/01/11 04:38:25;;;;;;;2.80;2.60;;;14.60;60.20;;;;;;4970167;28;20038;-83
2024/01/11 04:40:50;;;;;;;2.55;2.45;;;14.60;60.20;;;;;;5005459;28;20124;-84
2024/01/11 04:43:16;;;;;;;2.85;2.67;;;14.60;60.30;;;;;;5006908;28;20054;-85
2024/01/11 04:45:41;;;;;;;2.65;2.40;;;14.60;60.40;;;;;;5019951;28;20414;-85
2024/01/11 04:48:07;;;;;;;3.05;2.85;;;14.60;60.20;;;;;;4993644;28;20063;-86
2024/01/11 04:50:32;;;;;;;2.58;2.40;;;14.60;60.20;;;;;;5023268;28;20070;-85
2024/01/11 04:52:58;;;;;;;2.50;2.40;;;14.50;60.10;;;;;;5024395;28;20045;-85
2024/01/11 04:55:23;;;;;;;2.38;2.28;;;14.60;60.20;;;;;;5028574;28;20021;-85
2024/01/11 04:57:49;;;;;;;2.17;2.08;;;14.60;60.20;;;;;;5025135;28;20046;-86
2024/01/11 05:00:15;;;;;;;2.45;2.17;;;14.60;60.20;;;;;;4992084;28;20041;-82
2024/01/11 05:02:40;;;;;;;2.85;2.65;;;14.60;60.20;;;;;;5007585;28;20068;-83
2024/01/11 05:05:06;;;;;;;2.50;2.30;;;14.60;60.80;;;;;;5022175;28;20100;-83
2024/01/11 05:07:31;;;;;;;2.60;2.40;;;14.60;60.10;;;;;;5023494;28;20045;-83
2024/01/11 05:09:57;;;;;;;2.30;2.20;;;14.50;60.80;;;;;;5021481;28;20056;-81
2024/01/11 05:12:23;;;;;;;2.30;2.20;;;14.50;60.10;;;;;;5020614;28;20101;-82
2024/01/11 05:14:48;;;;;;;2.38;2.28;;;14.50;60.30;;;;;;5022515;28;20048;-82
2024/01/11 05:17:14;;;;;;;2.50;2.35;;;14.50;60.20;;;;;;5027197;28;20033;-83
2024/01/11 05:19:39;;;;;;;2.80;2.70;;;14.50;60.10;;;;;;5027960;28;20045;-84
2024/01/11 05:22:05;;;;;;;2.20;2.10;;;14.50;60.70;;;;;;5024328;28;20041;-84
2024/01/11 05:24:30;;;;;;;2.30;2.20;;;14.50;60.10;;;;;;5014874;28;20133;-86
2024/01/11 05:26:56;;;;;;;2.53;2.42;;;14.50;60.90;;;;;;5016903;28;20041;-85
2024/01/11 05:29:21;;;;;;;2.88;2.70;;;14.50;60.10;;;;;;5022931;28;20068;-83
2024/01/11 05:31:47;;;;;;;2.50;2.40;;;14.50;60.00;;;;;;5024591;28;20073;-84
2024/01/11 05:34:13;;;;;;;2.67;2.47;;;14.50;60.00;;;;;;5024245;28;20050;-84
2024/01/11 05:36:38;;;;;;;2.72;2.60;;;14.50;60.20;;;;;;4988069;28;20432;-84
2024/01/11 05:39:04;;;;;;;2.63;2.53;;;14.50;60.20;;;;;;4998992;28;20057;-84
2024/01/11 05:41:29;;;;;;;2.75;2.58;;;14.50;60.20;;;;;;5024325;28;20117;-82
2024/01/11 05:43:55;;;;;;;2.67;2.58;;;14.50;60.10;;;;;;5020827;28;20148;-83
2024/01/11 05:46:20;;;;;;;3.13;2.40;;;14.50;60.10;;;;;;5003678;28;20575;-85
2024/01/11 05:48:46;;;;;;;3.03;2.83;;;14.40;60.30;;;;;;5013768;28;20494;-85
2024/01/11 05:51:12;;;;;;;2.80;2.70;;;14.50;60.30;;;;;;5022096;28;20053;-83
2024/01/11 05:53:37;;;;;;;2.80;2.60;;;14.50;60.10;;;;;;5014187;28;20041;-83
2024/01/11 05:56:10;;;;;;;2.40;2.30;;;14.40;59.90;;;;;;5025160;28;20562;-83
2024/01/11 05:58:37;;;;;;;2.40;2.30;;;14.40;60.00;;;;;;5024987;28;20064;-83
2024/01/11 06:01:03;;;;;;;2.70;2.60;;;14.40;60.00;;;;;;5003908;28;20132;-84
2024/01/11 06:03:29;;;;;;;2.63;2.50;;;14.40;60.00;;;;;;4983717;28;20048;-82
2024/01/11 06:05:55;;;;;;;2.47;2.35;;;14.40;59.80;;;;;;5004913;28;20129;-82
2024/01/11 06:08:20;;;;;;;2.70;2.60;;;14.40;60.10;;;;;;5018317;28;20559;-82
2024/01/11 06:10:46;;;;;;;2.45;2.25;;;14.40;59.80;;;;;;5026412;28;20560;-84
2024/01/11 06:13:12;;;;;;;2.60;2.40;;;14.40;60.10;;;;;;5024182;28;20034;-84
2024/01/11 06:15:37;;;;;;;2.65;2.55;;;14.40;59.90;;;;;;4991674;28;20574;-83
2024/01/11 06:18:04;;;;;;;2.78;2.67;;;14.40;59.80;;;;;;5016796;28;20184;-82
2024/01/11 06:20:30;;;;;;;2.83;2.63;;;14.40;60.10;;;;;;5037884;28;20112;-82
2024/01/11 06:22:56;;;;;;;2.58;2.47;;;14.40;59.90;;;;;;5025462;28;20077;-83
2024/01/11 06:25:21;;;;;;;2.70;2.60;;;14.40;59.90;;;;;;5026049;28;20045;-82
2024/01/11 06:27:47;;;;;;;2.42;2.22;;;14.40;59.90;;;;;;5014092;28;20031;-82
2024/01/11 06:30:13;;;;;;;2.72;2.63;;;14.40;59.90;;;;;;5023509;28;20033;-82
2024/01/11 06:32:38;;;;;;;2.60;2.50;;;14.40;59.80;;;;;;5020838;28;20073;-81
2024/01/11 06:35:05;;;;;;;2.42;2.33;;;14.40;59.90;;;;;;5022394;28;20046;-81
2024/01/11 06:37:30;;;;;;;2.42;2.33;;;14.40;60.00;;;;;;5024324;28;20124;-82
2024/01/11 06:39:56;;;;;;;2.55;2.45;;;14.40;60.10;;;;;;5022782;28;20183;-82
2024/01/11 06:42:22;;;;;;;2.80;2.60;;;14.40;59.90;;;;;;4991095;28;20377;-82
2024/01/11 06:44:47;;;;;;;2.42;2.33;;;14.40;60.10;;;;;;5012438;28;20069;-84
2024/01/11 06:47:13;;;;;;;2.65;2.50;;;14.30;59.90;;;;;;4999490;28;20038;-83
2024/01/11 06:49:42;;;;;;;2.80;2.60;;;14.40;60.10;;;;;;5027624;28;20045;-82
2024/01/11 06:52:07;;;;;;;2.58;2.38;;;14.40;60.20;;;;;;5023442;28;20053;-84
2024/01/11 06:54:33;;;;;;;2.60;2.40;;;14.40;60.00;;;;;;5021943;28;20041;-82
2024/01/11 06:56:58;;;;;;;2.83;2.63;;;14.30;60.00;;;;;;5017065;28;20033;-83
2024/01/11 06:59:25;;;;;;;3.08;2.88;;;14.30;60.00;;;;;;5018736;28;20037;-85
2024/01/11 07:01:50;;;;;;;2.25;2.15;;;14.30;60.10;;;;;;5022210;28;20059;-83
2024/01/11 07:04:16;;;;;;;2.40;2.30;;;14.30;60.10;;;;;;5026447;28;20057;-84
2024/01/11 07:06:42;;;;;;;2.35;2.20;;;14.30;60.10;;;;;;5021915;28;20108;-84
2024/01/11 07:09:07;;;;;;;2.83;2.72;;;14.30;60.00;;;;;;5023551;28;20507;-81
2024/01/11 07:11:33;;;;;;;2.65;2.45;;;14.30;59.90;;;;;;5015381;28;20044;-79
2024/01/11 07:13:58;;;;;;;2.55;2.45;;;14.30;60.10;;;;;;5021082;28;20095;-80
2024/01/11 07:16:24;;;;;;;2.65;2.55;;;14.30;60.40;;;;;;5012999;28;20606;-82
2024/01/11 07:18:50;;;;;;;2.55;2.45;;;14.30;60.30;;;;;;5013236;28;20033;-83
2024/01/11 07:21:29;;;;;;;2.60;2.50;;;14.40;60.10;;;;;;5022137;28;20120;-80
2024/01/11 07:23:56;;;;;;;2.67;2.47;;;14.40;60.40;;;;;;5020163;28;20080;-81
2024/01/11 07:26:23;;;;;;;3.20;3.00;;;14.40;61.20;;;;;;5020938;28;20120;-82
2024/01/11 07:28:48;;;;;;;3.05;2.72;;;14.40;60.00;;;;;;5004392;28;20496;-78
2024/01/11 07:31:14;;;;;;;2.65;2.45;;;14.40;60.80;;;;;;4640152;28;10000448;-81
2024/01/11 07:33:39;;;;;;;3.10;2.78;;;14.40;60.90;;;;;;5016767;28;20099;-80
2024/01/11 07:36:06;;;;;;;3.03;2.72;;;14.40;60.70;;;;;;4996662;28;20798;-80
2024/01/11 07:38:32;;;;;;;2.63;2.53;;;14.40;60.90;;;;;;4985348;28;20056;-80
2024/01/11 07:40:57;;;;;;;2.60;2.28;;;14.40;60.80;;;;;;5029106;28;20507;-80
2024/01/11 07:43:23;;;;;;;2.40;2.20;;;14.40;61.10;;;;;;5019752;28;20432;-79
2024/01/11 07:45:50;;;;;;;3.03;2.72;;;14.40;61.50;;;;;;5002278;28;20515;-80
2024/01/11 07:48:16;;;;;;;2.90;2.70;;;14.40;61.20;;;;;;5019045;28;20112;-80
2024/01/11 07:50:41;;;;;;;4.50;2.40;;;14.40;61.70;;;;;;5022098;28;20068;-80
2024/01/11 07:53:07;;;;;;;5.82;2.70;;;14.40;61.80;;;;;;5024941;28;20048;-80
2024/01/11 07:55:32;;;;;;;2.97;2.78;;;14.40;61.60;;;;;;4996610;28;20046;-80
2024/01/11 07:57:58;;;;;;;4.22;2.80;;;14.40;61.50;;;;;;5020679;28;20066;-80
2024/01/11 08:00:23;;;;;;;3.13;2.35;;;14.40;61.70;;;;;;5022961;28;20061;-80
2024/01/11 08:02:49;;;;;;;2.45;2.25;;;14.40;61.80;;;;;;5002682;28;20030;-80
2024/01/11 08:05:15;;;;;;;4.82;2.50;;;14.30;61.70;;;;;;5015020;28;20522;-80
2024/01/11 08:07:42;;;;;;;2.78;2.63;;;14.40;61.90;;;;;;5023206;28;20087;-80
2024/01/11 08:10:09;;;;;;;2.40;2.30;;;14.30;61.60;;;;;;5023790;28;20057;-80
2024/01/11 08:12:34;;;;;;;2.72;2.53;;;14.30;61.80;;;;;;5021949;28;20072;-80
2024/01/11 08:15:00;;;;;;;2.45;2.35;;;14.30;62.80;;;;;;5019740;28;20084;-80
2024/01/11 08:17:26;;;;;;;3.05;2.78;;;14.30;62.00;;;;;;4990467;28;20041;-80
2024/01/11 08:19:51;;;;;;;3.05;2.78;;;14.30;61.80;;;;;;5022231;28;20044;-80
2024/01/11 08:22:17;;;;;;;2.92;2.72;;;14.30;61.80;;;;;;5022051;28;20118;-80
2024/01/11 08:24:43;;;;;;;2.80;2.60;;;14.30;61.70;;;;;;5022512;28;20041;-80
2024/01/11 08:27:08;;;;;;;3.15;2.95;;;14.30;62.60;;;;;;5022017;28;20053;-80
2024/01/11 08:29:34;;;;;;;2.90;2.70;;;14.30;61.80;;;;;;5021227;28;20088;-80
2024/01/11 08:32:01;;;;;;;5.15;2.80;;;14.30;61.80;;;;;;5022027;28;20041;-80
2024/01/11 08:34:26;;;;;;;3.28;3.08;;;14.30;61.70;;;;;;5025482;28;20437;-80
2024/01/11 08:36:52;;;;;;;2.80;2.60;;;14.30;61.70;;;;;;5020019;28;20046;-80
2024/01/11 08:39:18;;;;;;;2.55;2.35;;;14.30;61.80;;;;;;5022115;28;20918;-80
2024/01/11 08:41:43;;;;;;;2.50;2.38;;;14.30;61.80;;;;;;5023270;28;20131;-79
2024/01/11 08:44:09;;;;;;;2.78;2.58;;;14.30;62.00;;;;;;5021155;28;20504;-80
2024/01/11 08:46:34;;;;;;;3.30;3.10;;;14.20;62.10;;;;;;5021729;28;20407;-80
2024/01/11 08:49:03;;;;;;;2.70;2.50;;;14.20;62.10;;;;;;5021414;28;20040;-80
2024/01/11 08:51:34;;;;;;;2.95;2.75;;;14.20;62.00;;;;;;5019508;28;20056;-81
2024/01/11 08:54:00;;;;;;;3.00;2.72;;;14.20;62.00;;;;;;5021321;28;20053;-80
2024/01/11 08:56:26;;;;;;;2.85;2.65;;;14.20;62.10;;;;;;5021440;28;20045;-80
2024/01/11 08:58:51;;;;;;;4.43;2.70;;;14.20;62.40;;;;;;5021808;28;20033;-79
2024/01/11 09:01:17;;;;;;;3.17;2.97;;;14.20;62.20;;;;;;5023794;28;20037;-80
2024/01/11 09:03:43;;;;;;;2.90;2.80;;;14.20;62.80;;;;;;5019662;28;20530;-80
2024/01/11 09:06:09;;;;;;;2.70;2.50;;;14.20;62.10;;;;;;5021128;28;20046;-80
2024/01/11 09:08:34;;;;;;;2.78;2.58;;;14.20;62.30;;;;;;5006988;28;20124;-80
2024/01/11 09:11:00;;;;;;;3.22;2.83;;;14.20;62.10;;;;;;5020265;28;20072;-80
2024/01/11 09:13:27;;;;;;;2.88;2.67;;;14.20;63.10;;;;;;5024415;28;20515;-80
2024/01/11 09:15:52;;;;;;;2.60;2.50;;;14.20;62.20;;;;;;5022591;28;20128;-80
2024/01/11 09:18:18;;;;;;;2.83;2.63;;;14.20;62.10;;;;;;4996864;28;20124;-80
2024/01/11 09:20:44;;;;;;;2.90;2.70;;;14.20;62.20;;;;;;5023025;28;20128;-79
2024/01/11 09:23:09;;;;;;;2.90;2.80;;;14.20;62.30;;;;;;5024227;28;20527;-80
2024/01/11 09:25:35;;;;;;;3.38;3.17;;;14.20;62.10;;;;;;5010617;28;20130;-80
2024/01/11 09:28:00;;;;;;;2.90;2.70;;;14.20;62.70;;;;;;5017660;28;20065;-80
2024/01/11 09:30:26;;;;;;;2.72;2.53;;;14.20;62.40;;;;;;5017676;28;20041;-80
2024/01/11 09:32:52;;;;;;;3.40;2.50;;;14.20;62.20;;;;;;5016434;28;20125;-79
2024/01/11 09:35:18;;;;;;;2.80;2.58;;;14.20;62.50;;;;;;5023592;28;20346;-80
2024/01/11 09:37:45;;;;;;;2.67;2.47;;;14.20;62.30;;;;;;5026718;28;20037;-80
2024/01/11 09:40:11;;;;;;;2.90;2.67;;;14.20;62.60;;;;;;5025150;28;20103;-80
2024/01/11 09:42:37;;;;;;;2.53;2.40;;;14.20;62.20;;;;;;5025081;28;20045;-80
2024/01/11 09:45:10;;;;;;;2.88;2.33;;;14.20;62.40;;;;;;5021166;28;20361;-80
2024/01/11 09:47:36;;;;;;;3.25;3.05;;;14.20;62.10;;;;;;5019080;28;20511;-80
2024/01/11 09:50:02;;;;;;;3.10;2.90;;;14.20;62.20;;;;;;5008254;28;20052;-80
2024/01/11 09:52:28;;;;;;;2.80;2.55;;;14.20;62.10;;;;;;5025385;28;20049;-80
2024/01/11 09:54:53;;;;;;;2.63;2.42;;;14.20;62.40;;;;;;5001150;28;20099;-80
2024/01/11 09:57:24;;;;;;;2.58;2.38;;;14.20;62.50;;;;;;5020766;28;20048;-80
2024/01/11 09:59:51;;;;;;;3.22;2.92;;;14.20;62.70;;;;;;5021374;28;20054;-79
2024/01/11 10:02:16;;;;;;;2.80;2.60;;;14.20;62.50;;;;;;5013674;28;20584;-80
2024/01/11 10:04:43;;;;;;;2.72;2.53;;;14.30;62.30;;;;;;5024974;28;20041;-80
2024/01/11 10:07:09;;;;;;;2.85;2.65;;;14.30;62.10;;;;;;5005794;28;20069;-80
2024/01/11 10:09:34;;;;;;;3.00;2.80;;;14.30;62.10;;;;;;5001930;28;20481;-80
2024/01/11 10:12:00;;;;;;;2.63;2.53;;;14.30;62.10;;;;;;5021332;28;20033;-80
2024/01/11 10:14:26;;;;;;;2.80;2.63;;;14.30;61.90;;;;;;5021160;28;20478;-80
2024/01/11 10:16:53;;;;;;;3.05;2.83;;;14.30;61.70;;;;;;5025516;28;20124;-80
2024/01/11 10:19:21;;;;;;;2.80;2.60;;;14.40;61.80;;;;;;5025538;28;20046;-80
2024/01/11 10:21:46;;;;;;;2.80;2.70;;;14.40;61.50;;;;;;5021483;28;20056;-80
2024/01/11 10:24:18;;;;;;;2.88;2.70;;;14.40;61.20;;;;;;5024348;28;20499;-80
2024/01/11 10:26:43;;;;;;;2.80;2.65;;;14.40;61.20;;;;;;5022988;28;20057;-80
2024/01/11 10:29:10;;;;;;;2.85;2.65;;;14.40;61.00;;;;;;5022177;28;20060;-79
2024/01/11 10:31:37;;;;;;;3.00;2.80;;;14.40;61.40;;;;;;5025310;28;20037;-80
2024/01/11 10:34:03;;;;;;;3.13;2.92;;;14.50;61.40;;;;;;5020452;28;20050;-79
2024/01/11 10:36:31;;;;;;;2.40;2.30;;;14.50;61.50;;;;;;5021722;28;20056;-80
2024/01/11 10:38:56;;;;;;;2.28;2.17;;;14.50;61.30;;;;;;5023597;28;20041;-80
2024/01/11 10:41:22;;;;;;;2.92;2.72;;;14.50;61.10;;;;;;5008697;28;20432;-79
2024/01/11 10:43:48;;;;;;;2.33;2.22;;;14.50;61.10;;;;;;5021554;28;20503;-80
2024/01/11 10:46:13;;;;;;;2.70;2.50;;;14.50;61.30;;;;;;5025984;28;20045;-79
2024/01/11 10:48:39;;;;;;;2.58;2.47;;;14.50;61.50;;;;;;4993741;28;20045;-79
2024/01/11 10:51:07;;;;;;;2.78;2.67;;;14.50;61.20;;;;;;4985874;28;20050;-80
2024/01/11 10:53:43;;;;;;;3.10;2.90;;;14.50;61.50;;;;;;5009794;28;20059;-80
2024/01/11 10:56:08;;;;;;;2.97;2.78;;;14.50;61.80;;;;;;5025414;28;20046;-79
2024/01/11 10:58:35;;;;;;;2.92;2.72;;;14.50;61.70;;;;;;5022412;28;20064;-80
2024/01/11 11:01:01;;;;;;;2.70;2.50;;;14.50;61.50;;;;;;5021836;28;20037;-79
2024/01/11 11:03:28;;;;;;;2.67;2.47;;;14.50;61.60;;;;;;5020377;28;20049;-80
2024/01/11 11:05:55;;;;;;;2.75;2.63;;;14.60;61.50;;;;;;5018124;28;20065;-79
2024/01/11 11:08:20;;;;;;;2.63;2.53;;;14.60;61.80;;;;;;5047557;28;20045;-80
2024/01/11 11:10:47;;;;;;;2.90;2.70;;;14.60;62.10;;;;;;4989953;28;20037;-80
2024/01/11 11:13:14;;;;;;;2.92;2.72;;;14.60;61.40;;;;;;5018786;28;20508;-81
2024/01/11 11:15:39;;;;;;;2.55;2.45;;;14.60;61.90;;;;;;5022241;28;20096;-79
2024/01/11 11:18:05;;;;;;;2.95;2.75;;;14.60;61.90;;;;;;5021063;28;20049;-79
2024/01/11 11:20:32;;;;;;;3.05;2.85;;;14.70;60.90;;;;;;5022686;28;20080;-79
2024/01/11 11:23:04;;;;;;;2.55;2.35;;;14.70;61.40;;;;;;5020872;28;20045;-79
2024/01/11 11:25:30;;;;;;;2.50;2.40;;;14.70;61.90;;;;;;5010363;28;20052;-79
2024/01/11 11:27:56;;;;;;;2.58;2.47;;;14.70;61.00;;;;;;5020413;28;20471;-79
2024/01/11 11:30:21;;;;;;;2.97;2.78;;;14.70;61.00;;;;;;5022630;28;20057;-79
2024/01/11 11:32:47;;;;;;;2.45;2.35;;;14.70;61.40;;;;;;5020291;28;20503;-79
2024/01/11 11:35:13;;;;;;;3.13;2.92;;;14.70;60.80;;;;;;5014512;28;20906;-79
2024/01/11 11:37:39;;;;;;;2.45;2.30;;;14.70;60.60;;;;;;5021001;28;20335;-79
2024/01/11 11:40:13;;;;;;;2.50;2.30;;;14.70;60.60;;;;;;5020951;28;20048;-79
2024/01/11 11:42:39;;;;;;;2.65;2.55;;;14.80;61.00;;;;;;4990169;28;20034;-79
2024/01/11 11:45:06;;;;;;;2.58;2.42;;;14.70;60.70;;;;;;4989691;28;20046;-79
2024/01/11 11:47:34;;;;;;;2.30;2.20;;;14.80;60.60;;;;;;5034797;28;20126;-79
2024/01/11 11:50:09;;;;;;;2.67;2.47;;;14.80;60.60;;;;;;5021344;28;20053;-79
2024/01/11 11:52:36;;;;;;;2.72;2.50;;;14.80;60.50;;;;;;5039517;28;20056;-79
2024/01/11 11:55:02;;;;;;;2.50;2.38;;;14.80;60.50;;;;;;5022727;28;20048;-79
2024/01/11 11:57:28;;;;;;;2.70;2.60;;;14.90;60.50;;;;;;5024931;28;20049;-79
2024/01/11 12:00:02;;;;;;;2.75;2.65;;;14.90;60.40;;;;;;5019150;28;20527;-79
2024/01/11 12:02:27;;;;;;;2.53;2.33;;;14.90;60.40;;;;;;5008629;28;20056;-79
2024/01/11 12:04:53;;;;;;;2.58;2.47;;;14.90;60.50;;;;;;5038650;28;20045;-79
2024/01/11 12:07:20;;;;;;;2.55;2.40;;;14.90;60.50;;;;;;5047852;28;20132;-79
2024/01/11 12:09:46;;;;;;;2.70;2.60;;;14.90;60.40;;;;;;5004912;28;20132;-79
2024/01/11 12:12:12;;;;;;;2.50;2.30;;;14.90;60.70;;;;;;5019339;28;20041;-79
2024/01/11 12:14:37;;;;;;;2.40;2.20;;;14.90;60.40;;;;;;5021290;28;20041;-79
2024/01/11 12:17:03;;;;;;;2.45;2.30;;;14.90;60.40;;;;;;5019709;28;20487;-79
2024/01/11 12:19:29;;;;;;;2.60;2.40;;;14.90;60.30;;;;;;5025834;28;20584;-79
2024/01/11 12:21:54;;;;;;;2.40;2.28;;;14.90;60.50;;;;;;5021089;28;20046;-78
2024/01/11 12:24:21;;;;;;;2.83;2.63;;;14.90;60.40;;;;;;5019920;28;20079;-78
2024/01/11 12:26:50;;;;;;;2.65;2.47;;;15.00;60.20;;;;;;5012635;28;20089;-78
2024/01/11 12:29:18;;;;;;;4.60;3.30;;;15.00;60.30;;;;;;4982489;28;20034;-78
2024/01/11 12:31:44;;;;;;;2.83;2.63;;;15.20;61.60;;;;;;5017643;28;20064;-79
2024/01/11 12:34:11;;;;;;;3.00;2.50;;;15.10;62.20;;;;;;5004791;28;20073;-78
2024/01/11 12:36:36;;;;;;;2.78;2.58;;;15.10;62.50;;;;;;5004530;28;20057;-78
2024/01/11 12:39:04;;;;;;;2.80;2.60;;;15.20;62.90;;;;;;5017972;28;20061;-79